CPX309 Details

Departure: Guam International Airport (PGUM)
Arrival: Tokyo-Narita International Airport (RJAA)
Route: UNZ TERYY G205 TEGOD A337 DAGDA G223 ADKAK Y819 CATCH Y815 KETAR Y811 VEPOX Y811 MELON


Current Weather Information
PGUM 260954Z 07011KT 10SM CLR 27/22 A2998 RMK AO2 SLP144 T02720222
RJAA 261000Z 27004KT 9999 FEW020 09/08 Q1006 NOSIG RMK 1CU020 A2972